sensor_id;sensor_type;location;lat;lon;timestamp;pressure;altitude;pressure_sealevel;temperature;humidity
58471;BME280;44258;51.288;12.068;2022-09-14T00:00:55;99667.09;;;19.07;58.45
58471;BME280;44258;51.288;12.068;2022-09-14T00:03:21;99673.25;;;19.09;58.33
58471;BME280;44258;51.288;12.068;2022-09-14T00:05:48;99667.09;;;19.07;58.56
58471;BME280;44258;51.288;12.068;2022-09-14T00:08:14;99666.41;;;19.05;59.09
58471;BME280;44258;51.288;12.068;2022-09-14T00:10:44;99669.78;;;18.89;59.48
58471;BME280;44258;51.288;12.068;2022-09-14T00:13:13;99668.34;;;18.94;59.30
58471;BME280;44258;51.288;12.068;2022-09-14T00:15:41;99664.31;;;18.99;59.45
58471;BME280;44258;51.288;12.068;2022-09-14T00:18:10;99663.44;;;18.98;59.47
58471;BME280;44258;51.288;12.068;2022-09-14T00:20:36;99669.28;;;19.03;59.17
58471;BME280;44258;51.288;12.068;2022-09-14T00:23:03;99659.94;;;19.06;58.98
58471;BME280;44258;51.288;12.068;2022-09-14T00:25:29;99651.13;;;19.12;58.96
58471;BME280;44258;51.288;12.068;2022-09-14T00:27:57;99649.66;;;19.18;58.75
58471;BME280;44258;51.288;12.068;2022-09-14T00:30:24;99654.72;;;19.12;59.44
58471;BME280;44258;51.288;12.068;2022-09-14T00:32:50;99649.69;;;19.00;59.25
58471;BME280;44258;51.288;12.068;2022-09-14T00:35:17;99653.88;;;18.94;59.46
58471;BME280;44258;51.288;12.068;2022-09-14T00:37:47;99650.13;;;18.95;59.39
58471;BME280;44258;51.288;12.068;2022-09-14T00:40:14;99649.13;;;18.96;59.58
58471;BME280;44258;51.288;12.068;2022-09-14T00:42:40;99640.31;;;19.02;59.45
58471;BME280;44258;51.288;12.068;2022-09-14T00:45:13;99641.31;;;19.01;59.41
58471;BME280;44258;51.288;12.068;2022-09-14T00:47:40;99636.63;;;19.11;59.29
58471;BME280;44258;51.288;12.068;2022-09-14T00:50:08;99636.34;;;19.14;58.87
58471;BME280;44258;51.288;12.068;2022-09-14T00:52:39;99631.56;;;19.17;58.85
58471;BME280;44258;51.288;12.068;2022-09-14T00:55:08;99639.75;;;19.17;58.99
58471;BME280;44258;51.288;12.068;2022-09-14T00:57:39;99624.72;;;19.12;58.97
58471;BME280;44258;51.288;12.068;2022-09-14T01:00:11;99628.94;;;19.07;59.14
58471;BME280;44258;51.288;12.068;2022-09-14T01:02:39;99620.63;;;19.08;59.00
58471;BME280;44258;51.288;12.068;2022-09-14T01:05:07;99620.22;;;19.03;59.07
58471;BME280;44258;51.288;12.068;2022-09-14T01:08:07;99619.47;;;18.93;59.26
58471;BME280;44258;51.288;12.068;2022-09-14T01:10:49;99623.25;;;18.82;59.75
58471;BME280;44258;51.288;12.068;2022-09-14T01:13:27;99624.38;;;18.71;59.96
58471;BME280;44258;51.288;12.068;2022-09-14T01:16:05;99624.28;;;18.63;60.68
58471;BME280;44258;51.288;12.068;2022-09-14T01:18:37;99630.81;;;18.70;60.39
58471;BME280;44258;51.288;12.068;2022-09-14T01:21:09;99628.97;;;18.71;60.46
58471;BME280;44258;51.288;12.068;2022-09-14T01:23:41;99629.88;;;18.80;60.29
58471;BME280;44258;51.288;12.068;2022-09-14T01:26:38;99636.59;;;18.85;60.48
58471;BME280;44258;51.288;12.068;2022-09-14T01:29:14;99638.38;;;18.94;60.00
58471;BME280;44258;51.288;12.068;2022-09-14T01:31:48;99636.09;;;18.90;59.87
58471;BME280;44258;51.288;12.068;2022-09-14T01:34:22;99636.97;;;18.09;62.50
58471;BME280;44258;51.288;12.068;2022-09-14T01:36:54;99644.63;;;17.58;63.74
58471;BME280;44258;51.288;12.068;2022-09-14T01:39:22;99642.84;;;16.71;65.59
58471;BME280;44258;51.288;12.068;2022-09-14T01:41:49;99640.88;;;16.83;65.30
58471;BME280;44258;51.288;12.068;2022-09-14T01:44:21;99641.88;;;16.62;65.33
58471;BME280;44258;51.288;12.068;2022-09-14T01:46:51;99637.72;;;16.58;64.18
58471;BME280;44258;51.288;12.068;2022-09-14T01:49:22;99644.22;;;16.17;65.87
58471;BME280;44258;51.288;12.068;2022-09-14T01:51:57;99644.00;;;16.68;64.07
58471;BME280;44258;51.288;12.068;2022-09-14T01:54:27;99646.00;;;16.57;64.21
58471;BME280;44258;51.288;12.068;2022-09-14T01:56:57;99636.31;;;16.73;63.66
58471;BME280;44258;51.288;12.068;2022-09-14T01:59:29;99646.13;;;17.04;62.55
58471;BME280;44258;51.288;12.068;2022-09-14T02:02:00;99638.09;;;17.41;61.03
58471;BME280;44258;51.288;12.068;2022-09-14T02:04:35;99628.22;;;17.40;61.16
58471;BME280;44258;51.288;12.068;2022-09-14T02:07:03;99630.41;;;17.07;61.59
58471;BME280;44258;51.288;12.068;2022-09-14T02:09:30;99616.53;;;17.20;61.46
58471;BME280;44258;51.288;12.068;2022-09-14T02:11:56;99616.22;;;17.33;60.76
58471;BME280;44258;51.288;12.068;2022-09-14T02:14:26;99613.25;;;17.17;61.03
58471;BME280;44258;51.288;12.068;2022-09-14T02:16:53;99614.47;;;17.42;60.15
58471;BME280;44258;51.288;12.068;2022-09-14T02:19:19;99614.50;;;17.32;60.44
58471;BME280;44258;51.288;12.068;2022-09-14T02:21:46;99610.28;;;17.00;61.18
58471;BME280;44258;51.288;12.068;2022-09-14T02:24:13;99597.09;;;17.15;60.72
58471;BME280;44258;51.288;12.068;2022-09-14T02:26:41;99597.41;;;17.02;61.17
58471;BME280;44258;51.288;12.068;2022-09-14T02:29:07;99599.41;;;16.71;62.35
58471;BME280;44258;51.288;12.068;2022-09-14T02:31:44;99602.56;;;16.76;62.18
58471;BME280;44258;51.288;12.068;2022-09-14T02:34:19;99609.09;;;17.12;61.05
58471;BME280;44258;51.288;12.068;2022-09-14T02:36:52;99600.53;;;17.27;60.69
58471;BME280;44258;51.288;12.068;2022-09-14T02:39:25;99600.63;;;17.35;59.90
58471;BME280;44258;51.288;12.068;2022-09-14T02:42:00;99590.94;;;17.32;60.36
58471;BME280;44258;51.288;12.068;2022-09-14T02:44:34;99588.22;;;17.23;60.50
58471;BME280;44258;51.288;12.068;2022-09-14T02:47:11;99592.16;;;17.38;59.65
58471;BME280;44258;51.288;12.068;2022-09-14T02:49:44;99592.22;;;17.28;59.86
58471;BME280;44258;51.288;12.068;2022-09-14T02:52:18;99586.13;;;17.54;58.61
58471;BME280;44258;51.288;12.068;2022-09-14T02:54:53;99586.09;;;17.26;59.30
58471;BME280;44258;51.288;12.068;2022-09-14T02:57:23;99584.66;;;17.12;60.01
58471;BME280;44258;51.288;12.068;2022-09-14T02:59:52;99591.69;;;16.95;60.41
58471;BME280;44258;51.288;12.068;2022-09-14T03:02:20;99597.53;;;17.01;60.08
58471;BME280;44258;51.288;12.068;2022-09-14T03:04:46;99593.34;;;17.16;59.59
58471;BME280;44258;51.288;12.068;2022-09-14T03:07:12;99589.63;;;17.37;59.21
58471;BME280;44258;51.288;12.068;2022-09-14T03:09:39;99584.22;;;17.17;59.74
58471;BME280;44258;51.288;12.068;2022-09-14T03:12:05;99591.66;;;17.25;59.51
58471;BME280;44258;51.288;12.068;2022-09-14T03:14:32;99592.88;;;17.40;58.84
58471;BME280;44258;51.288;12.068;2022-09-14T03:16:59;99585.66;;;17.11;59.44
58471;BME280;44258;51.288;12.068;2022-09-14T03:19:27;99587.13;;;16.96;59.44
58471;BME280;44258;51.288;12.068;2022-09-14T03:21:53;99579.38;;;17.21;58.85
58471;BME280;44258;51.288;12.068;2022-09-14T03:24:20;99583.91;;;17.30;58.82
58471;BME280;44258;51.288;12.068;2022-09-14T03:26:46;99573.94;;;17.01;59.40
58471;BME280;44258;51.288;12.068;2022-09-14T03:29:16;99569.53;;;17.00;59.46
58471;BME280;44258;51.288;12.068;2022-09-14T03:31:42;99565.28;;;16.88;59.92
58471;BME280;44258;51.288;12.068;2022-09-14T03:34:09;99571.13;;;16.83;60.04
58471;BME280;44258;51.288;12.068;2022-09-14T03:36:37;99567.28;;;16.86;59.54
58471;BME280;44258;51.288;12.068;2022-09-14T03:39:04;99568.72;;;16.61;60.67
58471;BME280;44258;51.288;12.068;2022-09-14T03:41:30;99562.09;;;16.92;59.59
58471;BME280;44258;51.288;12.068;2022-09-14T03:43:57;99566.72;;;16.72;60.33
58471;BME280;44258;51.288;12.068;2022-09-14T03:46:24;99558.13;;;16.87;59.85
58471;BME280;44258;51.288;12.068;2022-09-14T03:48:50;99560.69;;;16.69;60.43
58471;BME280;44258;51.288;12.068;2022-09-14T03:51:17;99555.25;;;16.98;59.58
58471;BME280;44258;51.288;12.068;2022-09-14T03:53:45;99555.84;;;16.92;59.44
58471;BME280;44258;51.288;12.068;2022-09-14T03:56:14;99543.94;;;17.03;59.23
58471;BME280;44258;51.288;12.068;2022-09-14T03:58:41;99554.81;;;16.93;59.57
58471;BME280;44258;51.288;12.068;2022-09-14T04:01:10;99542.13;;;16.74;59.99
58471;BME280;44258;51.288;12.068;2022-09-14T04:03:37;99546.38;;;16.96;59.19
58471;BME280;44258;51.288;12.068;2022-09-14T04:06:04;99549.88;;;17.26;58.59
58471;BME280;44258;51.288;12.068;2022-09-14T04:08:31;99544.25;;;17.47;57.98
58471;BME280;44258;51.288;12.068;2022-09-14T04:10:59;99540.91;;;17.53;57.23
58471;BME280;44258;51.288;12.068;2022-09-14T04:13:25;99541.09;;;17.42;57.97
58471;BME280;44258;51.288;12.068;2022-09-14T04:15:56;99542.72;;;17.34;58.34
58471;BME280;44258;51.288;12.068;2022-09-14T04:18:23;99536.34;;;17.53;57.73
58471;BME280;44258;51.288;12.068;2022-09-14T04:20:54;99536.38;;;17.44;57.89
58471;BME280;44258;51.288;12.068;2022-09-14T04:23:21;99541.03;;;17.24;58.52
58471;BME280;44258;51.288;12.068;2022-09-14T04:25:47;99538.13;;;17.35;58.25
58471;BME280;44258;51.288;12.068;2022-09-14T04:28:15;99537.53;;;17.41;57.91
58471;BME280;44258;51.288;12.068;2022-09-14T04:30:42;99539.66;;;17.47;57.92
58471;BME280;44258;51.288;12.068;2022-09-14T04:33:08;99532.22;;;17.49;57.57
58471;BME280;44258;51.288;12.068;2022-09-14T04:35:35;99534.06;;;17.49;57.69
58471;BME280;44258;51.288;12.068;2022-09-14T04:38:02;99533.63;;;17.06;58.65
58471;BME280;44258;51.288;12.068;2022-09-14T04:40:29;99536.13;;;17.37;57.87
58471;BME280;44258;51.288;12.068;2022-09-14T04:42:55;99533.84;;;17.60;57.30
58471;BME280;44258;51.288;12.068;2022-09-14T04:45:23;99539.94;;;17.44;57.14
58471;BME280;44258;51.288;12.068;2022-09-14T04:47:52;99532.72;;;17.15;58.37
58471;BME280;44258;51.288;12.068;2022-09-14T04:50:18;99533.22;;;17.01;58.83
58471;BME280;44258;51.288;12.068;2022-09-14T04:52:45;99537.06;;;17.08;58.42
58471;BME280;44258;51.288;12.068;2022-09-14T04:55:12;99535.03;;;17.20;58.07
58471;BME280;44258;51.288;12.068;2022-09-14T04:57:38;99541.34;;;17.21;58.15
58471;BME280;44258;51.288;12.068;2022-09-14T05:00:06;99541.69;;;17.36;57.65
58471;BME280;44258;51.288;12.068;2022-09-14T05:02:34;99536.50;;;17.42;57.91
58471;BME280;44258;51.288;12.068;2022-09-14T05:05:00;99535.53;;;17.43;57.57
58471;BME280;44258;51.288;12.068;2022-09-14T05:07:26;99541.72;;;17.26;58.12
58471;BME280;44258;51.288;12.068;2022-09-14T05:09:53;99534.81;;;17.41;57.73
58471;BME280;44258;51.288;12.068;2022-09-14T05:12:19;99540.66;;;17.46;57.73
58471;BME280;44258;51.288;12.068;2022-09-14T05:14:46;99534.56;;;17.62;57.50
58471;BME280;44258;51.288;12.068;2022-09-14T05:17:12;99540.94;;;17.71;57.18
58471;BME280;44258;51.288;12.068;2022-09-14T05:19:40;99535.09;;;17.38;57.54
58471;BME280;44258;51.288;12.068;2022-09-14T05:22:07;99533.16;;;17.58;57.29
58471;BME280;44258;51.288;12.068;2022-09-14T05:24:33;99534.31;;;17.56;57.22
58471;BME280;44258;51.288;12.068;2022-09-14T05:27:00;99532.22;;;17.49;57.24
58471;BME280;44258;51.288;12.068;2022-09-14T05:29:26;99523.91;;;17.51;57.39
58471;BME280;44258;51.288;12.068;2022-09-14T05:31:53;99520.03;;;17.53;57.50
58471;BME280;44258;51.288;12.068;2022-09-14T05:34:20;99528.72;;;17.20;58.79
58471;BME280;44258;51.288;12.068;2022-09-14T05:36:48;99524.19;;;17.10;58.96
58471;BME280;44258;51.288;12.068;2022-09-14T05:39:14;99514.75;;;17.05;59.34
58471;BME280;44258;51.288;12.068;2022-09-14T05:41:41;99516.81;;;16.83;60.05
58471;BME280;44258;51.288;12.068;2022-09-14T05:44:08;99522.69;;;16.79;60.28
58471;BME280;44258;51.288;12.068;2022-09-14T05:46:34;99520.03;;;16.49;61.58
58471;BME280;44258;51.288;12.068;2022-09-14T05:49:01;99517.13;;;16.70;60.77
58471;BME280;44258;51.288;12.068;2022-09-14T05:51:28;99518.16;;;16.50;61.62
58471;BME280;44258;51.288;12.068;2022-09-14T05:53:57;99516.53;;;16.86;60.63
58471;BME280;44258;51.288;12.068;2022-09-14T05:56:26;99515.09;;;16.92;60.33
58471;BME280;44258;51.288;12.068;2022-09-14T05:58:53;99513.56;;;16.70;61.46
58471;BME280;44258;51.288;12.068;2022-09-14T06:01:21;99518.34;;;16.95;60.58
58471;BME280;44258;51.288;12.068;2022-09-14T06:03:49;99518.75;;;17.10;59.69
58471;BME280;44258;51.288;12.068;2022-09-14T06:06:17;99519.97;;;16.88;60.30
58471;BME280;44258;51.288;12.068;2022-09-14T06:08:45;99519.06;;;16.98;60.04
58471;BME280;44258;51.288;12.068;2022-09-14T06:11:17;99522.19;;;17.03;60.01
58471;BME280;44258;51.288;12.068;2022-09-14T06:13:44;99510.50;;;17.02;59.77
58471;BME280;44258;51.288;12.068;2022-09-14T06:16:13;99508.00;;;17.28;59.27
58471;BME280;44258;51.288;12.068;2022-09-14T06:18:41;99500.84;;;17.18;59.29
58471;BME280;44258;51.288;12.068;2022-09-14T06:21:09;99508.38;;;17.33;58.87
58471;BME280;44258;51.288;12.068;2022-09-14T06:23:36;99507.88;;;17.10;59.29
58471;BME280;44258;51.288;12.068;2022-09-14T06:26:04;99510.16;;;17.25;59.19
58471;BME280;44258;51.288;12.068;2022-09-14T06:28:33;99503.88;;;17.24;58.88
58471;BME280;44258;51.288;12.068;2022-09-14T06:31:00;99513.81;;;17.33;58.73
58471;BME280;44258;51.288;12.068;2022-09-14T06:33:27;99513.28;;;17.20;59.58
58471;BME280;44258;51.288;12.068;2022-09-14T06:35:54;99504.34;;;17.38;59.14
58471;BME280;44258;51.288;12.068;2022-09-14T06:38:23;99511.88;;;17.53;58.64
58471;BME280;44258;51.288;12.068;2022-09-14T06:40:51;99509.16;;;17.53;58.60
58471;BME280;44258;51.288;12.068;2022-09-14T06:43:18;99505.50;;;17.63;58.37
58471;BME280;44258;51.288;12.068;2022-09-14T06:45:55;99510.59;;;17.48;58.77
58471;BME280;44258;51.288;12.068;2022-09-14T06:48:22;99507.13;;;17.56;58.66
58471;BME280;44258;51.288;12.068;2022-09-14T06:50:51;99502.88;;;17.53;58.69
58471;BME280;44258;51.288;12.068;2022-09-14T06:53:17;99507.13;;;17.56;58.54
58471;BME280;44258;51.288;12.068;2022-09-14T06:55:44;99508.63;;;17.68;58.19
58471;BME280;44258;51.288;12.068;2022-09-14T06:58:11;99508.31;;;17.71;57.66
58471;BME280;44258;51.288;12.068;2022-09-14T07:00:37;99509.03;;;17.73;58.02
58471;BME280;44258;51.288;12.068;2022-09-14T07:03:05;99502.44;;;17.76;57.89
58471;BME280;44258;51.288;12.068;2022-09-14T07:05:32;99512.84;;;17.80;57.75
58471;BME280;44258;51.288;12.068;2022-09-14T07:07:58;99517.81;;;17.85;57.61
58471;BME280;44258;51.288;12.068;2022-09-14T07:10:25;99511.44;;;17.76;57.81
58471;BME280;44258;51.288;12.068;2022-09-14T07:12:52;99522.03;;;17.51;58.41
58471;BME280;44258;51.288;12.068;2022-09-14T07:15:20;99520.81;;;17.64;58.29
58471;BME280;44258;51.288;12.068;2022-09-14T07:17:46;99518.78;;;17.01;60.09
58471;BME280;44258;51.288;12.068;2022-09-14T07:20:14;99516.69;;;17.32;58.99
58471;BME280;44258;51.288;12.068;2022-09-14T07:22:41;99516.78;;;17.40;58.45
58471;BME280;44258;51.288;12.068;2022-09-14T07:25:08;99522.66;;;16.98;59.63
58471;BME280;44258;51.288;12.068;2022-09-14T07:27:35;99522.06;;;17.04;59.41
58471;BME280;44258;51.288;12.068;2022-09-14T07:30:04;99525.16;;;17.19;59.24
58471;BME280;44258;51.288;12.068;2022-09-14T07:32:31;99515.88;;;17.22;59.08
58471;BME280;44258;51.288;12.068;2022-09-14T07:34:58;99510.66;;;17.38;58.99
58471;BME280;44258;51.288;12.068;2022-09-14T07:37:28;99518.63;;;17.49;58.61
58471;BME280;44258;51.288;12.068;2022-09-14T07:39:54;99520.63;;;17.47;58.27
58471;BME280;44258;51.288;12.068;2022-09-14T07:42:21;99523.81;;;17.43;58.52
58471;BME280;44258;51.288;12.068;2022-09-14T07:44:47;99524.38;;;16.89;59.77
58471;BME280;44258;51.288;12.068;2022-09-14T07:47:14;99523.66;;;16.87;59.84
58471;BME280;44258;51.288;12.068;2022-09-14T07:49:41;99524.50;;;16.98;59.17
58471;BME280;44258;51.288;12.068;2022-09-14T07:52:07;99528.97;;;16.79;59.11
58471;BME280;44258;51.288;12.068;2022-09-14T07:54:36;99525.03;;;17.21;58.36
58471;BME280;44258;51.288;12.068;2022-09-14T07:57:03;99517.34;;;16.97;59.01
58471;BME280;44258;51.288;12.068;2022-09-14T07:59:30;99526.63;;;17.04;58.61
58471;BME280;44258;51.288;12.068;2022-09-14T08:01:56;99523.00;;;16.76;59.22
58471;BME280;44258;51.288;12.068;2022-09-14T08:04:23;99525.66;;;16.85;59.17
58471;BME280;44258;51.288;12.068;2022-09-14T08:06:50;99527.38;;;16.86;58.87
58471;BME280;44258;51.288;12.068;2022-09-14T08:09:16;99521.69;;;16.80;58.75
58471;BME280;44258;51.288;12.068;2022-09-14T08:11:44;99514.81;;;16.85;58.84
58471;BME280;44258;51.288;12.068;2022-09-14T08:14:11;99521.06;;;16.95;58.64
58471;BME280;44258;51.288;12.068;2022-09-14T08:16:38;99523.03;;;17.23;57.97
58471;BME280;44258;51.288;12.068;2022-09-14T08:19:06;99517.00;;;16.43;59.50
58471;BME280;44258;51.288;12.068;2022-09-14T08:21:35;99522.56;;;16.70;59.18
58471;BME280;44258;51.288;12.068;2022-09-14T08:24:02;99516.06;;;17.01;58.59
58471;BME280;44258;51.288;12.068;2022-09-14T08:26:29;99511.31;;;17.12;57.84
58471;BME280;44258;51.288;12.068;2022-09-14T08:28:57;99509.09;;;16.88;58.12
58471;BME280;44258;51.288;12.068;2022-09-14T08:31:26;99515.44;;;16.60;59.65
58471;BME280;44258;51.288;12.068;2022-09-14T08:33:56;99513.13;;;16.26;60.65
58471;BME280;44258;51.288;12.068;2022-09-14T08:36:25;99511.13;;;16.28;60.68
58471;BME280;44258;51.288;12.068;2022-09-14T08:38:51;99512.09;;;16.85;58.72
58471;BME280;44258;51.288;12.068;2022-09-14T08:41:29;99511.34;;;17.03;58.29
58471;BME280;44258;51.288;12.068;2022-09-14T08:44:01;99509.44;;;16.46;59.39
58471;BME280;44258;51.288;12.068;2022-09-14T08:46:33;99512.41;;;16.72;59.40
58471;BME280;44258;51.288;12.068;2022-09-14T08:49:03;99510.31;;;17.04;58.43
58471;BME280;44258;51.288;12.068;2022-09-14T08:51:32;99510.28;;;17.13;57.73
58471;BME280;44258;51.288;12.068;2022-09-14T08:53:59;99498.81;;;16.92;58.07
58471;BME280;44258;51.288;12.068;2022-09-14T08:56:28;99507.75;;;16.36;59.61
58471;BME280;44258;51.288;12.068;2022-09-14T08:59:15;99500.50;;;16.93;58.13
58471;BME280;44258;51.288;12.068;2022-09-14T09:01:53;99489.25;;;17.15;56.74
58471;BME280;44258;51.288;12.068;2022-09-14T09:04:35;99485.94;;;16.84;57.54
58471;BME280;44258;51.288;12.068;2022-09-14T09:07:09;99489.47;;;16.47;59.02
58471;BME280;44258;51.288;12.068;2022-09-14T09:09:42;99491.03;;;16.50;58.56
58471;BME280;44258;51.288;12.068;2022-09-14T09:12:13;99484.16;;;16.65;58.52
58471;BME280;44258;51.288;12.068;2022-09-14T09:14:44;99489.81;;;16.82;58.44
58471;BME280;44258;51.288;12.068;2022-09-14T09:17:14;99486.44;;;16.60;58.84
58471;BME280;44258;51.288;12.068;2022-09-14T09:19:51;99489.72;;;16.54;59.36
58471;BME280;44258;51.288;12.068;2022-09-14T09:22:21;99484.00;;;15.89;59.53
58471;BME280;44258;51.288;12.068;2022-09-14T09:24:51;99480.69;;;16.73;58.16
58471;BME280;44258;51.288;12.068;2022-09-14T09:27:19;99475.81;;;16.86;58.22
58471;BME280;44258;51.288;12.068;2022-09-14T09:29:46;99482.22;;;16.85;57.48
58471;BME280;44258;51.288;12.068;2022-09-14T09:32:16;99479.91;;;17.00;57.58
58471;BME280;44258;51.288;12.068;2022-09-14T09:34:43;99471.16;;;16.59;57.69
58471;BME280;44258;51.288;12.068;2022-09-14T09:37:12;99475.19;;;16.55;57.17
58471;BME280;44258;51.288;12.068;2022-09-14T09:39:40;99463.09;;;16.77;57.09
58471;BME280;44258;51.288;12.068;2022-09-14T09:42:13;99467.38;;;17.27;55.99
58471;BME280;44258;51.288;12.068;2022-09-14T09:44:56;99463.31;;;16.93;56.00
58471;BME280;44258;51.288;12.068;2022-09-14T09:47:29;99469.75;;;17.02;56.53
58471;BME280;44258;51.288;12.068;2022-09-14T09:49:58;99465.66;;;17.16;56.59
58471;BME280;44258;51.288;12.068;2022-09-14T09:52:26;99468.53;;;17.52;55.76
58471;BME280;44258;51.288;12.068;2022-09-14T09:54:54;99457.16;;;17.39;56.08
58471;BME280;44258;51.288;12.068;2022-09-14T09:57:22;99459.97;;;17.47;56.01
58471;BME280;44258;51.288;12.068;2022-09-14T10:00:07;99450.66;;;17.22;56.42
58471;BME280;44258;51.288;12.068;2022-09-14T10:02:34;99450.13;;;17.64;55.39
58471;BME280;44258;51.288;12.068;2022-09-14T10:05:04;99452.25;;;17.88;54.78
58471;BME280;44258;51.288;12.068;2022-09-14T10:07:33;99444.16;;;17.60;55.28
58471;BME280;44258;51.288;12.068;2022-09-14T10:10:02;99444.38;;;17.21;56.86
58471;BME280;44258;51.288;12.068;2022-09-14T10:12:30;99449.41;;;17.44;56.58
58471;BME280;44258;51.288;12.068;2022-09-14T10:15:17;99443.22;;;17.14;57.71
58471;BME280;44258;51.288;12.068;2022-09-14T10:17:54;99448.59;;;17.33;55.86
58471;BME280;44258;51.288;12.068;2022-09-14T10:20:22;99438.66;;;17.24;57.13
58471;BME280;44258;51.288;12.068;2022-09-14T10:22:49;99440.84;;;16.73;57.88
58471;BME280;44258;51.288;12.068;2022-09-14T10:25:22;99439.28;;;17.36;56.77
58471;BME280;44258;51.288;12.068;2022-09-14T10:27:56;99440.22;;;17.17;57.67
58471;BME280;44258;51.288;12.068;2022-09-14T10:30:27;99448.66;;;16.77;58.66
58471;BME280;44258;51.288;12.068;2022-09-14T10:32:59;99443.97;;;16.69;59.11
58471;BME280;44258;51.288;12.068;2022-09-14T10:35:33;99454.56;;;16.72;58.09
58471;BME280;44258;51.288;12.068;2022-09-14T10:38:25;99461.91;;;16.89;58.29
58471;BME280;44258;51.288;12.068;2022-09-14T10:41:02;99463.84;;;17.07;58.02
58471;BME280;44258;51.288;12.068;2022-09-14T10:43:37;99453.19;;;17.33;56.82
58471;BME280;44258;51.288;12.068;2022-09-14T10:46:12;99449.53;;;17.70;56.41
58471;BME280;44258;51.288;12.068;2022-09-14T10:49:03;99452.53;;;17.49;56.83
58471;BME280;44258;51.288;12.068;2022-09-14T10:51:44;99453.88;;;17.35;57.92
58471;BME280;44258;51.288;12.068;2022-09-14T10:54:24;99446.25;;;17.66;57.12
58471;BME280;44258;51.288;12.068;2022-09-14T10:57:06;99453.34;;;17.31;58.14
58471;BME280;44258;51.288;12.068;2022-09-14T10:59:44;99453.47;;;17.58;57.77
58471;BME280;44258;51.288;12.068;2022-09-14T11:05:20;99454.19;;;17.78;57.05
58471;BME280;44258;51.288;12.068;2022-09-14T11:08:13;99464.94;;;17.51;58.61
58471;BME280;44258;51.288;12.068;2022-09-14T11:10:53;99459.88;;;17.39;58.93
58471;BME280;44258;51.288;12.068;2022-09-14T11:13:36;99454.84;;;17.44;58.75
58471;BME280;44258;51.288;12.068;2022-09-14T11:16:19;99443.34;;;17.50;58.56
58471;BME280;44258;51.288;12.068;2022-09-14T11:18:59;99451.69;;;17.21;58.66
58471;BME280;44258;51.288;12.068;2022-09-14T11:21:35;99443.41;;;17.12;59.30
58471;BME280;44258;51.288;12.068;2022-09-14T11:24:12;99445.50;;;17.46;59.09
58471;BME280;44258;51.288;12.068;2022-09-14T11:26:43;99442.97;;;17.63;57.96
58471;BME280;44258;51.288;12.068;2022-09-14T11:29:16;99453.19;;;17.33;59.05
58471;BME280;44258;51.288;12.068;2022-09-14T11:31:49;99454.03;;;17.61;58.90
58471;BME280;44258;51.288;12.068;2022-09-14T11:34:21;99438.19;;;17.74;58.41
58471;BME280;44258;51.288;12.068;2022-09-14T11:36:54;99436.75;;;17.52;59.53
58471;BME280;44258;51.288;12.068;2022-09-14T11:39:25;99430.78;;;17.21;60.08
58471;BME280;44258;51.288;12.068;2022-09-14T11:41:57;99435.34;;;17.30;59.80
58471;BME280;44258;51.288;12.068;2022-09-14T11:44:28;99426.91;;;17.24;59.27
58471;BME280;44258;51.288;12.068;2022-09-14T11:47:02;99437.66;;;17.15;60.85
58471;BME280;44258;51.288;12.068;2022-09-14T11:49:50;99430.75;;;17.31;59.83
58471;BME280;44258;51.288;12.068;2022-09-14T11:52:21;99425.09;;;17.42;59.75
58471;BME280;44258;51.288;12.068;2022-09-14T11:54:49;99417.91;;;17.51;59.47
58471;BME280;44258;51.288;12.068;2022-09-14T11:57:17;99418.19;;;16.92;61.16
58471;BME280;44258;51.288;12.068;2022-09-14T11:59:50;99423.63;;;16.16;63.17
58471;BME280;44258;51.288;12.068;2022-09-14T12:02:57;99423.97;;;16.70;62.45
58471;BME280;44258;51.288;12.068;2022-09-14T12:05:28;99436.91;;;16.39;63.28
58471;BME280;44258;51.288;12.068;2022-09-14T12:08:02;99427.22;;;16.83;61.48
58471;BME280;44258;51.288;12.068;2022-09-14T12:10:29;99428.19;;;16.45;62.01
58471;BME280;44258;51.288;12.068;2022-09-14T12:12:57;99424.47;;;16.56;61.78
58471;BME280;44258;51.288;12.068;2022-09-14T12:15:34;99416.44;;;16.54;62.72
58471;BME280;44258;51.288;12.068;2022-09-14T12:18:20;99408.53;;;15.94;64.77
58471;BME280;44258;51.288;12.068;2022-09-14T12:20:51;99407.06;;;16.39;63.49
58471;BME280;44258;51.288;12.068;2022-09-14T12:23:40;99417.13;;;16.66;62.45
58471;BME280;44258;51.288;12.068;2022-09-14T12:26:34;99418.47;;;16.42;63.99
58471;BME280;44258;51.288;12.068;2022-09-14T12:34:40;99407.22;;;15.69;65.62
58471;BME280;44258;51.288;12.068;2022-09-14T12:37:30;99415.38;;;15.88;65.03
58471;BME280;44258;51.288;12.068;2022-09-14T12:46:39;99400.25;;;15.57;66.35
58471;BME280;44258;51.288;12.068;2022-09-14T12:49:25;99401.66;;;15.41;67.58
58471;BME280;44258;51.288;12.068;2022-09-14T12:51:52;99412.75;;;15.38;67.55
58471;BME280;44258;51.288;12.068;2022-09-14T12:54:27;99402.94;;;16.05;65.08
58471;BME280;44258;51.288;12.068;2022-09-14T12:57:03;99407.78;;;16.21;65.10
58471;BME280;44258;51.288;12.068;2022-09-14T12:59:39;99408.88;;;16.58;63.85
58471;BME280;44258;51.288;12.068;2022-09-14T13:02:29;99401.06;;;16.25;65.68
58471;BME280;44258;51.288;12.068;2022-09-14T13:05:01;99390.97;;;16.65;64.13
58471;BME280;44258;51.288;12.068;2022-09-14T13:07:33;99388.09;;;17.04;63.43
58471;BME280;44258;51.288;12.068;2022-09-14T13:10:03;99372.94;;;16.26;63.62
58471;BME280;44258;51.288;12.068;2022-09-14T13:12:37;99372.50;;;16.78;62.93
58471;BME280;44258;51.288;12.068;2022-09-14T13:15:07;99365.22;;;17.06;62.02
58471;BME280;44258;51.288;12.068;2022-09-14T13:17:54;99361.59;;;17.15;62.05
58471;BME280;44258;51.288;12.068;2022-09-14T13:20:21;99351.56;;;17.16;61.81
58471;BME280;44258;51.288;12.068;2022-09-14T13:22:48;99352.44;;;17.17;62.00